sensor_id;sensor_type;location;lat;lon;timestamp;temperature;humidity
25811;DHT22;13645;52.460;13.910;2022-07-06T00:01:53;15.90;99.90
25811;DHT22;13645;52.460;13.910;2022-07-06T00:04:20;16.00;99.90
25811;DHT22;13645;52.460;13.910;2022-07-06T00:06:47;16.00;99.90
25811;DHT22;13645;52.460;13.910;2022-07-06T00:09:14;16.00;99.90
25811;DHT22;13645;52.460;13.910;2022-07-06T00:11:41;15.90;99.90
25811;DHT22;13645;52.460;13.910;2022-07-06T00:14:08;15.90;99.90
25811;DHT22;13645;52.460;13.910;2022-07-06T00:16:35;15.90;99.90
25811;DHT22;13645;52.460;13.910;2022-07-06T00:19:02;15.90;99.90
25811;DHT22;13645;52.460;13.910;2022-07-06T00:21:29;15.80;99.90
25811;DHT22;13645;52.460;13.910;2022-07-06T00:23:56;15.80;99.90
25811;DHT22;13645;52.460;13.910;2022-07-06T00:26:22;15.90;99.90
25811;DHT22;13645;52.460;13.910;2022-07-06T00:28:49;15.90;99.90
25811;DHT22;13645;52.460;13.910;2022-07-06T00:31:17;15.90;99.90
25811;DHT22;13645;52.460;13.910;2022-07-06T00:33:44;15.90;99.90
25811;DHT22;13645;52.460;13.910;2022-07-06T00:36:11;15.90;99.90
25811;DHT22;13645;52.460;13.910;2022-07-06T00:38:37;15.90;99.90
25811;DHT22;13645;52.460;13.910;2022-07-06T00:41:04;15.90;99.90
25811;DHT22;13645;52.460;13.910;2022-07-06T00:43:54;15.80;99.90
25811;DHT22;13645;52.460;13.910;2022-07-06T00:46:27;15.80;99.90
25811;DHT22;13645;52.460;13.910;2022-07-06T00:48:54;15.80;99.90
25811;DHT22;13645;52.460;13.910;2022-07-06T00:51:25;15.80;99.90
25811;DHT22;13645;52.460;13.910;2022-07-06T00:53:53;15.80;99.90
25811;DHT22;13645;52.460;13.910;2022-07-06T00:56:21;15.80;99.90
25811;DHT22;13645;52.460;13.910;2022-07-06T00:58:48;15.80;99.90
25811;DHT22;13645;52.460;13.910;2022-07-06T01:01:15;15.80;99.90
25811;DHT22;13645;52.460;13.910;2022-07-06T01:03:42;15.70;99.90
25811;DHT22;13645;52.460;13.910;2022-07-06T01:06:08;15.60;99.90
25811;DHT22;13645;52.460;13.910;2022-07-06T01:08:37;15.60;99.90
25811;DHT22;13645;52.460;13.910;2022-07-06T01:11:05;15.60;99.90
25811;DHT22;13645;52.460;13.910;2022-07-06T01:13:32;15.60;99.90
25811;DHT22;13645;52.460;13.910;2022-07-06T01:15:59;15.50;99.90
25811;DHT22;13645;52.460;13.910;2022-07-06T01:18:26;15.50;99.90
25811;DHT22;13645;52.460;13.910;2022-07-06T01:21:11;15.40;99.90
25811;DHT22;13645;52.460;13.910;2022-07-06T01:23:43;15.40;99.90
25811;DHT22;13645;52.460;13.910;2022-07-06T01:26:15;15.40;99.90
25811;DHT22;13645;52.460;13.910;2022-07-06T01:28:42;15.40;99.90
25811;DHT22;13645;52.460;13.910;2022-07-06T01:31:18;15.40;99.90
25811;DHT22;13645;52.460;13.910;2022-07-06T01:33:46;15.40;99.90
25811;DHT22;13645;52.460;13.910;2022-07-06T01:36:12;15.30;99.90
25811;DHT22;13645;52.460;13.910;2022-07-06T01:38:52;15.30;99.90
25811;DHT22;13645;52.460;13.910;2022-07-06T01:41:20;15.10;99.90
25811;DHT22;13645;52.460;13.910;2022-07-06T01:43:47;14.90;99.90
25811;DHT22;13645;52.460;13.910;2022-07-06T01:46:14;14.90;99.90
25811;DHT22;13645;52.460;13.910;2022-07-06T01:48:41;14.90;99.90
25811;DHT22;13645;52.460;13.910;2022-07-06T01:51:08;14.90;99.90
25811;DHT22;13645;52.460;13.910;2022-07-06T01:53:37;14.90;99.90
25811;DHT22;13645;52.460;13.910;2022-07-06T01:56:04;14.80;99.90
25811;DHT22;13645;52.460;13.910;2022-07-06T01:58:34;14.90;99.90
25811;DHT22;13645;52.460;13.910;2022-07-06T02:01:06;14.90;99.90
25811;DHT22;13645;52.460;13.910;2022-07-06T02:03:33;14.80;99.90
25811;DHT22;13645;52.460;13.910;2022-07-06T02:06:02;14.80;99.90
25811;DHT22;13645;52.460;13.910;2022-07-06T02:08:29;14.80;99.90
25811;DHT22;13645;52.460;13.910;2022-07-06T02:10:56;14.70;99.90
25811;DHT22;13645;52.460;13.910;2022-07-06T02:13:23;14.70;99.90
25811;DHT22;13645;52.460;13.910;2022-07-06T02:15:50;14.60;99.90
25811;DHT22;13645;52.460;13.910;2022-07-06T02:18:17;14.50;99.90
25811;DHT22;13645;52.460;13.910;2022-07-06T02:20:43;14.50;99.90
25811;DHT22;13645;52.460;13.910;2022-07-06T02:23:10;14.50;99.90
25811;DHT22;13645;52.460;13.910;2022-07-06T02:25:37;14.50;99.90
25811;DHT22;13645;52.460;13.910;2022-07-06T02:28:04;14.50;99.90
25811;DHT22;13645;52.460;13.910;2022-07-06T02:30:30;14.50;99.90
25811;DHT22;13645;52.460;13.910;2022-07-06T02:32:57;14.50;99.90
25811;DHT22;13645;52.460;13.910;2022-07-06T02:35:24;14.50;99.90
25811;DHT22;13645;52.460;13.910;2022-07-06T02:37:51;14.60;99.90
25811;DHT22;13645;52.460;13.910;2022-07-06T02:40:17;14.60;99.90
25811;DHT22;13645;52.460;13.910;2022-07-06T02:42:44;14.70;99.90
25811;DHT22;13645;52.460;13.910;2022-07-06T02:45:11;14.70;99.90
25811;DHT22;13645;52.460;13.910;2022-07-06T02:47:37;14.70;99.90
25811;DHT22;13645;52.460;13.910;2022-07-06T02:50:05;14.70;99.90
25811;DHT22;13645;52.460;13.910;2022-07-06T02:52:32;14.70;99.90
25811;DHT22;13645;52.460;13.910;2022-07-06T02:55:06;14.70;99.90
25811;DHT22;13645;52.460;13.910;2022-07-06T02:57:33;14.70;99.90
25811;DHT22;13645;52.460;13.910;2022-07-06T03:00:00;14.80;99.90
25811;DHT22;13645;52.460;13.910;2022-07-06T03:02:26;14.80;99.90
25811;DHT22;13645;52.460;13.910;2022-07-06T03:04:53;14.90;99.90
25811;DHT22;13645;52.460;13.910;2022-07-06T03:07:20;14.90;99.90
25811;DHT22;13645;52.460;13.910;2022-07-06T03:09:47;15.00;99.90
25811;DHT22;13645;52.460;13.910;2022-07-06T03:12:13;15.10;99.90
25811;DHT22;13645;52.460;13.910;2022-07-06T03:14:40;15.10;99.90
25811;DHT22;13645;52.460;13.910;2022-07-06T03:17:07;15.10;99.90
25811;DHT22;13645;52.460;13.910;2022-07-06T03:19:34;15.20;99.90
25811;DHT22;13645;52.460;13.910;2022-07-06T03:22:01;15.20;99.90
25811;DHT22;13645;52.460;13.910;2022-07-06T03:24:27;15.20;99.90
25811;DHT22;13645;52.460;13.910;2022-07-06T03:26:54;15.20;99.90
25811;DHT22;13645;52.460;13.910;2022-07-06T03:29:21;15.30;99.90
25811;DHT22;13645;52.460;13.910;2022-07-06T03:31:48;15.30;99.90
25811;DHT22;13645;52.460;13.910;2022-07-06T03:34:15;15.30;99.90
25811;DHT22;13645;52.460;13.910;2022-07-06T03:36:42;15.40;99.90
25811;DHT22;13645;52.460;13.910;2022-07-06T03:39:09;15.40;99.90
25811;DHT22;13645;52.460;13.910;2022-07-06T03:41:35;15.50;99.90
25811;DHT22;13645;52.460;13.910;2022-07-06T03:44:02;15.40;99.90
25811;DHT22;13645;52.460;13.910;2022-07-06T03:46:29;15.30;99.90
25811;DHT22;13645;52.460;13.910;2022-07-06T03:48:56;15.30;99.90
25811;DHT22;13645;52.460;13.910;2022-07-06T03:51:23;15.20;99.90
25811;DHT22;13645;52.460;13.910;2022-07-06T03:53:50;15.10;99.90
25811;DHT22;13645;52.460;13.910;2022-07-06T03:56:17;15.10;99.90
25811;DHT22;13645;52.460;13.910;2022-07-06T03:58:57;15.10;99.90
25811;DHT22;13645;52.460;13.910;2022-07-06T04:01:24;15.10;99.90
25811;DHT22;13645;52.460;13.910;2022-07-06T04:03:52;15.00;99.90
25811;DHT22;13645;52.460;13.910;2022-07-06T04:06:19;15.00;99.90
25811;DHT22;13645;52.460;13.910;2022-07-06T04:08:45;14.90;99.90
25811;DHT22;13645;52.460;13.910;2022-07-06T04:11:12;14.80;99.90
25811;DHT22;13645;52.460;13.910;2022-07-06T04:13:39;14.80;99.90
25811;DHT22;13645;52.460;13.910;2022-07-06T04:16:06;14.80;99.90
25811;DHT22;13645;52.460;13.910;2022-07-06T04:18:33;14.90;99.90
25811;DHT22;13645;52.460;13.910;2022-07-06T04:21:00;14.80;99.90
25811;DHT22;13645;52.460;13.910;2022-07-06T04:23:29;14.80;99.90
25811;DHT22;13645;52.460;13.910;2022-07-06T04:25:55;14.80;99.90
25811;DHT22;13645;52.460;13.910;2022-07-06T04:28:22;14.90;99.90
25811;DHT22;13645;52.460;13.910;2022-07-06T04:30:49;14.80;99.90
25811;DHT22;13645;52.460;13.910;2022-07-06T04:33:16;14.80;99.90
25811;DHT22;13645;52.460;13.910;2022-07-06T04:35:43;14.90;99.90
25811;DHT22;13645;52.460;13.910;2022-07-06T04:38:09;14.90;99.90
25811;DHT22;13645;52.460;13.910;2022-07-06T04:40:36;14.90;99.90
25811;DHT22;13645;52.460;13.910;2022-07-06T04:43:03;15.00;99.90
25811;DHT22;13645;52.460;13.910;2022-07-06T04:45:30;15.00;99.90
25811;DHT22;13645;52.460;13.910;2022-07-06T04:47:56;15.00;99.90
25811;DHT22;13645;52.460;13.910;2022-07-06T04:50:23;15.00;99.90
25811;DHT22;13645;52.460;13.910;2022-07-06T04:52:51;15.10;99.90
25811;DHT22;13645;52.460;13.910;2022-07-06T04:55:17;15.10;99.90
25811;DHT22;13645;52.460;13.910;2022-07-06T04:57:44;15.00;99.90
25811;DHT22;13645;52.460;13.910;2022-07-06T05:00:11;15.10;99.90
25811;DHT22;13645;52.460;13.910;2022-07-06T05:02:38;15.10;99.90
25811;DHT22;13645;52.460;13.910;2022-07-06T05:05:05;15.10;99.90
25811;DHT22;13645;52.460;13.910;2022-07-06T05:07:32;15.10;99.90
25811;DHT22;13645;52.460;13.910;2022-07-06T05:10:00;15.10;99.90
25811;DHT22;13645;52.460;13.910;2022-07-06T05:12:27;15.20;99.90
25811;DHT22;13645;52.460;13.910;2022-07-06T05:14:53;15.30;99.90
25811;DHT22;13645;52.460;13.910;2022-07-06T05:17:20;15.40;99.90
25811;DHT22;13645;52.460;13.910;2022-07-06T05:19:54;15.50;99.90
25811;DHT22;13645;52.460;13.910;2022-07-06T05:22:21;15.50;99.90
25811;DHT22;13645;52.460;13.910;2022-07-06T05:24:48;15.70;99.90
25811;DHT22;13645;52.460;13.910;2022-07-06T05:27:15;15.80;99.90
25811;DHT22;13645;52.460;13.910;2022-07-06T05:29:41;15.90;99.90
25811;DHT22;13645;52.460;13.910;2022-07-06T05:32:08;16.00;99.90
25811;DHT22;13645;52.460;13.910;2022-07-06T05:34:35;16.00;99.90
25811;DHT22;13645;52.460;13.910;2022-07-06T05:37:03;16.10;99.90
25811;DHT22;13645;52.460;13.910;2022-07-06T05:39:29;16.10;99.90
25811;DHT22;13645;52.460;13.910;2022-07-06T05:41:56;16.00;99.90
25811;DHT22;13645;52.460;13.910;2022-07-06T05:44:23;16.10;99.90
25811;DHT22;13645;52.460;13.910;2022-07-06T05:46:49;16.10;99.90
25811;DHT22;13645;52.460;13.910;2022-07-06T05:49:16;16.20;99.90
25811;DHT22;13645;52.460;13.910;2022-07-06T05:52:02;16.40;99.90
25811;DHT22;13645;52.460;13.910;2022-07-06T05:54:28;16.50;99.90
25811;DHT22;13645;52.460;13.910;2022-07-06T05:56:55;16.50;99.90
25811;DHT22;13645;52.460;13.910;2022-07-06T05:59:22;16.70;99.90
25811;DHT22;13645;52.460;13.910;2022-07-06T06:01:49;16.70;99.90
25811;DHT22;13645;52.460;13.910;2022-07-06T06:04:15;16.80;99.90
25811;DHT22;13645;52.460;13.910;2022-07-06T06:06:42;16.80;99.90
25811;DHT22;13645;52.460;13.910;2022-07-06T06:09:09;16.90;99.90
25811;DHT22;13645;52.460;13.910;2022-07-06T06:11:35;17.10;99.90
25811;DHT22;13645;52.460;13.910;2022-07-06T06:14:02;17.20;99.90
25811;DHT22;13645;52.460;13.910;2022-07-06T06:16:30;17.30;99.90
25811;DHT22;13645;52.460;13.910;2022-07-06T06:18:57;17.20;99.90
25811;DHT22;13645;52.460;13.910;2022-07-06T06:21:24;17.40;99.90
25811;DHT22;13645;52.460;13.910;2022-07-06T06:23:50;17.40;99.90
25811;DHT22;13645;52.460;13.910;2022-07-06T06:26:17;17.40;99.90
25811;DHT22;13645;52.460;13.910;2022-07-06T06:28:44;17.40;99.90
25811;DHT22;13645;52.460;13.910;2022-07-06T06:31:11;17.60;99.90
25811;DHT22;13645;52.460;13.910;2022-07-06T06:33:38;17.70;99.90
25811;DHT22;13645;52.460;13.910;2022-07-06T06:36:05;17.90;99.90
25811;DHT22;13645;52.460;13.910;2022-07-06T06:38:31;18.00;99.90
25811;DHT22;13645;52.460;13.910;2022-07-06T06:40:58;18.10;99.90
25811;DHT22;13645;52.460;13.910;2022-07-06T06:43:26;18.30;99.90
25811;DHT22;13645;52.460;13.910;2022-07-06T06:45:53;18.40;99.90
25811;DHT22;13645;52.460;13.910;2022-07-06T06:48:20;18.50;99.90
25811;DHT22;13645;52.460;13.910;2022-07-06T06:50:46;18.90;99.90
25811;DHT22;13645;52.460;13.910;2022-07-06T06:53:13;18.90;99.90
25811;DHT22;13645;52.460;13.910;2022-07-06T06:55:40;18.90;99.90
25811;DHT22;13645;52.460;13.910;2022-07-06T06:58:07;19.00;99.90
25811;DHT22;13645;52.460;13.910;2022-07-06T07:00:33;19.40;99.90
25811;DHT22;13645;52.460;13.910;2022-07-06T07:03:00;19.50;99.90
25811;DHT22;13645;52.460;13.910;2022-07-06T07:05:27;19.90;99.90
25811;DHT22;13645;52.460;13.910;2022-07-06T07:07:53;19.80;99.90
25811;DHT22;13645;52.460;13.910;2022-07-06T07:10:30;20.10;99.90
25811;DHT22;13645;52.460;13.910;2022-07-06T07:12:56;20.20;99.90
25811;DHT22;13645;52.460;13.910;2022-07-06T07:15:23;20.20;99.90
25811;DHT22;13645;52.460;13.910;2022-07-06T07:17:50;20.40;99.90
25811;DHT22;13645;52.460;13.910;2022-07-06T07:20:16;20.50;99.90
25811;DHT22;13645;52.460;13.910;2022-07-06T07:22:43;20.60;99.90
25811;DHT22;13645;52.460;13.910;2022-07-06T07:25:10;20.90;99.90
25811;DHT22;13645;52.460;13.910;2022-07-06T07:27:37;20.60;99.90
25811;DHT22;13645;52.460;13.910;2022-07-06T07:30:04;21.10;99.90
25811;DHT22;13645;52.460;13.910;2022-07-06T07:32:31;21.10;99.90
25811;DHT22;13645;52.460;13.910;2022-07-06T07:34:57;21.10;99.90
25811;DHT22;13645;52.460;13.910;2022-07-06T07:37:24;21.60;99.90
25811;DHT22;13645;52.460;13.910;2022-07-06T07:39:51;21.50;99.90
25811;DHT22;13645;52.460;13.910;2022-07-06T07:42:17;22.00;99.90
25811;DHT22;13645;52.460;13.910;2022-07-06T07:44:44;22.60;99.90
25811;DHT22;13645;52.460;13.910;2022-07-06T07:47:11;22.80;99.90
25811;DHT22;13645;52.460;13.910;2022-07-06T07:49:38;22.30;99.90
25811;DHT22;13645;52.460;13.910;2022-07-06T07:52:05;21.90;99.90
25811;DHT22;13645;52.460;13.910;2022-07-06T07:54:31;21.40;99.90
25811;DHT22;13645;52.460;13.910;2022-07-06T07:56:58;21.10;99.90
25811;DHT22;13645;52.460;13.910;2022-07-06T07:59:25;21.30;99.90
25811;DHT22;13645;52.460;13.910;2022-07-06T08:01:52;21.80;99.90
25811;DHT22;13645;52.460;13.910;2022-07-06T08:04:19;21.90;99.90
25811;DHT22;13645;52.460;13.910;2022-07-06T08:06:47;22.00;99.90
25811;DHT22;13645;52.460;13.910;2022-07-06T08:09:13;22.60;99.90
25811;DHT22;13645;52.460;13.910;2022-07-06T08:11:40;23.00;99.90
25811;DHT22;13645;52.460;13.910;2022-07-06T08:14:07;22.60;99.90
25811;DHT22;13645;52.460;13.910;2022-07-06T08:16:34;22.60;99.90
25811;DHT22;13645;52.460;13.910;2022-07-06T08:19:00;22.00;99.90
25811;DHT22;13645;52.460;13.910;2022-07-06T08:21:35;22.10;99.90
25811;DHT22;13645;52.460;13.910;2022-07-06T08:24:02;22.30;99.90
25811;DHT22;13645;52.460;13.910;2022-07-06T08:26:29;21.80;99.90
25811;DHT22;13645;52.460;13.910;2022-07-06T08:28:57;21.20;99.90
25811;DHT22;13645;52.460;13.910;2022-07-06T08:31:23;21.80;99.90
25811;DHT22;13645;52.460;13.910;2022-07-06T08:34:10;21.90;99.90
25811;DHT22;13645;52.460;13.910;2022-07-06T08:36:37;21.90;99.90
25811;DHT22;13645;52.460;13.910;2022-07-06T08:39:04;21.50;99.90
25811;DHT22;13645;52.460;13.910;2022-07-06T08:41:31;20.90;99.90
25811;DHT22;13645;52.460;13.910;2022-07-06T08:43:57;20.60;99.90
25811;DHT22;13645;52.460;13.910;2022-07-06T08:46:27;20.00;99.90
25811;DHT22;13645;52.460;13.910;2022-07-06T08:48:54;20.00;99.90
25811;DHT22;13645;52.460;13.910;2022-07-06T08:51:22;20.20;99.90
25811;DHT22;13645;52.460;13.910;2022-07-06T08:53:56;21.30;99.90
25811;DHT22;13645;52.460;13.910;2022-07-06T08:56:24;22.00;99.90
25811;DHT22;13645;52.460;13.910;2022-07-06T08:58:52;22.00;99.90
25811;DHT22;13645;52.460;13.910;2022-07-06T09:01:21;20.80;99.90
25811;DHT22;13645;52.460;13.910;2022-07-06T09:03:51;20.30;99.90
25811;DHT22;13645;52.460;13.910;2022-07-06T09:06:28;20.00;99.90
25811;DHT22;13645;52.460;13.910;2022-07-06T09:08:56;19.80;99.90
25811;DHT22;13645;52.460;13.910;2022-07-06T09:11:24;19.50;99.90
25811;DHT22;13645;52.460;13.910;2022-07-06T09:13:52;19.30;99.90
25811;DHT22;13645;52.460;13.910;2022-07-06T09:16:28;19.30;99.90
25811;DHT22;13645;52.460;13.910;2022-07-06T09:19:07;19.30;99.90
25811;DHT22;13645;52.460;13.910;2022-07-06T09:21:34;19.60;99.90
25811;DHT22;13645;52.460;13.910;2022-07-06T09:24:12;19.60;99.90
25811;DHT22;13645;52.460;13.910;2022-07-06T09:26:40;19.60;99.90
25811;DHT22;13645;52.460;13.910;2022-07-06T09:29:08;19.70;99.90
25811;DHT22;13645;52.460;13.910;2022-07-06T09:31:36;19.90;99.90
25811;DHT22;13645;52.460;13.910;2022-07-06T09:34:05;20.00;99.90
25811;DHT22;13645;52.460;13.910;2022-07-06T09:36:47;20.00;99.90
25811;DHT22;13645;52.460;13.910;2022-07-06T09:41:54;20.00;99.90
25811;DHT22;13645;52.460;13.910;2022-07-06T09:44:26;20.10;99.90
25811;DHT22;13645;52.460;13.910;2022-07-06T09:46:56;20.00;99.90
25811;DHT22;13645;52.460;13.910;2022-07-06T09:49:23;19.80;99.90
25811;DHT22;13645;52.460;13.910;2022-07-06T09:51:52;19.50;99.90
25811;DHT22;13645;52.460;13.910;2022-07-06T09:54:19;19.20;99.90
25811;DHT22;13645;52.460;13.910;2022-07-06T09:56:47;19.00;99.90
25811;DHT22;13645;52.460;13.910;2022-07-06T09:59:21;19.10;99.90
25811;DHT22;13645;52.460;13.910;2022-07-06T10:01:56;19.30;99.90
25811;DHT22;13645;52.460;13.910;2022-07-06T10:04:25;19.40;99.90
25811;DHT22;13645;52.460;13.910;2022-07-06T10:06:53;19.50;99.90
25811;DHT22;13645;52.460;13.910;2022-07-06T10:09:22;19.60;99.90
25811;DHT22;13645;52.460;13.910;2022-07-06T10:14:25;20.00;99.90
25811;DHT22;13645;52.460;13.910;2022-07-06T10:16:53;20.10;98.90
25811;DHT22;13645;52.460;13.910;2022-07-06T10:19:21;20.30;99.40
25811;DHT22;13645;52.460;13.910;2022-07-06T10:21:48;20.70;99.90
25811;DHT22;13645;52.460;13.910;2022-07-06T10:24:15;20.90;97.50
25811;DHT22;13645;52.460;13.910;2022-07-06T10:26:42;21.70;96.90
25811;DHT22;13645;52.460;13.910;2022-07-06T10:29:09;22.70;95.60
25811;DHT22;13645;52.460;13.910;2022-07-06T10:31:40;22.50;94.10
25811;DHT22;13645;52.460;13.910;2022-07-06T10:34:10;22.00;94.80
25811;DHT22;13645;52.460;13.910;2022-07-06T10:36:43;21.60;95.20
25811;DHT22;13645;52.460;13.910;2022-07-06T10:39:11;21.30;96.50
25811;DHT22;13645;52.460;13.910;2022-07-06T10:41:56;21.00;95.70
25811;DHT22;13645;52.460;13.910;2022-07-06T10:44:25;20.50;96.80
25811;DHT22;13645;52.460;13.910;2022-07-06T10:46:54;20.40;97.30
25811;DHT22;13645;52.460;13.910;2022-07-06T10:49:22;20.50;97.80
25811;DHT22;13645;52.460;13.910;2022-07-06T10:52:09;20.60;97.20
25811;DHT22;13645;52.460;13.910;2022-07-06T10:54:39;20.80;97.30
25811;DHT22;13645;52.460;13.910;2022-07-06T10:57:10;21.20;96.60
25811;DHT22;13645;52.460;13.910;2022-07-06T10:59:41;22.10;94.90
25811;DHT22;13645;52.460;13.910;2022-07-06T11:02:26;22.40;93.50
25811;DHT22;13645;52.460;13.910;2022-07-06T11:04:53;22.90;92.60
25811;DHT22;13645;52.460;13.910;2022-07-06T11:07:20;22.90;92.30
25811;DHT22;13645;52.460;13.910;2022-07-06T11:09:58;22.40;92.80
25811;DHT22;13645;52.460;13.910;2022-07-06T11:12:25;21.60;94.30
25811;DHT22;13645;52.460;13.910;2022-07-06T11:14:54;21.20;95.70
25811;DHT22;13645;52.460;13.910;2022-07-06T11:17:21;20.90;96.50
25811;DHT22;13645;52.460;13.910;2022-07-06T11:19:49;20.80;97.80
25811;DHT22;13645;52.460;13.910;2022-07-06T11:22:17;20.90;98.20
25811;DHT22;13645;52.460;13.910;2022-07-06T11:24:47;20.70;96.30
25811;DHT22;13645;52.460;13.910;2022-07-06T11:27:14;20.80;97.60
25811;DHT22;13645;52.460;13.910;2022-07-06T11:29:41;21.20;98.00
25811;DHT22;13645;52.460;13.910;2022-07-06T11:32:08;21.90;96.70
25811;DHT22;13645;52.460;13.910;2022-07-06T11:34:40;22.40;96.20
25811;DHT22;13645;52.460;13.910;2022-07-06T11:37:11;22.70;95.00
25811;DHT22;13645;52.460;13.910;2022-07-06T11:39:39;23.10;93.50
25811;DHT22;13645;52.460;13.910;2022-07-06T11:42:11;23.10;93.30
25811;DHT22;13645;52.460;13.910;2022-07-06T11:44:39;23.20;93.10
25811;DHT22;13645;52.460;13.910;2022-07-06T11:47:07;23.20;92.10
25811;DHT22;13645;52.460;13.910;2022-07-06T11:49:36;23.30;91.70
25811;DHT22;13645;52.460;13.910;2022-07-06T11:52:07;23.80;93.00
25811;DHT22;13645;52.460;13.910;2022-07-06T11:54:34;24.80;91.10
25811;DHT22;13645;52.460;13.910;2022-07-06T11:57:01;24.90;89.40
25811;DHT22;13645;52.460;13.910;2022-07-06T11:59:32;24.10;85.20
25811;DHT22;13645;52.460;13.910;2022-07-06T12:02:03;23.60;87.30
25811;DHT22;13645;52.460;13.910;2022-07-06T12:04:31;23.50;87.00
25811;DHT22;13645;52.460;13.910;2022-07-06T12:07:07;23.30;87.30
25811;DHT22;13645;52.460;13.910;2022-07-06T12:09:36;23.10;89.40
25811;DHT22;13645;52.460;13.910;2022-07-06T12:12:04;22.90;89.80
25811;DHT22;13645;52.460;13.910;2022-07-06T12:14:33;22.30;90.00
25811;DHT22;13645;52.460;13.910;2022-07-06T12:17:05;22.30;91.70
25811;DHT22;13645;52.460;13.910;2022-07-06T12:19:34;22.10;92.20
25811;DHT22;13645;52.460;13.910;2022-07-06T12:22:01;21.80;92.20
25811;DHT22;13645;52.460;13.910;2022-07-06T12:24:30;21.50;92.70
25811;DHT22;13645;52.460;13.910;2022-07-06T12:27:16;21.20;94.10
25811;DHT22;13645;52.460;13.910;2022-07-06T12:29:43;21.00;94.30
25811;DHT22;13645;52.460;13.910;2022-07-06T12:32:20;20.90;95.60
25811;DHT22;13645;52.460;13.910;2022-07-06T12:35:05;20.90;95.60
25811;DHT22;13645;52.460;13.910;2022-07-06T12:37:32;20.90;95.40
25811;DHT22;13645;52.460;13.910;2022-07-06T12:39:59;20.80;96.00
25811;DHT22;13645;52.460;13.910;2022-07-06T12:42:27;21.00;95.70
25811;DHT22;13645;52.460;13.910;2022-07-06T12:44:54;21.50;96.50
25811;DHT22;13645;52.460;13.910;2022-07-06T12:47:23;21.80;95.30
25811;DHT22;13645;52.460;13.910;2022-07-06T12:50:08;22.10;94.60
25811;DHT22;13645;52.460;13.910;2022-07-06T12:52:35;22.60;95.00
25811;DHT22;13645;52.460;13.910;2022-07-06T12:55:04;22.80;93.60
25811;DHT22;13645;52.460;13.910;2022-07-06T12:57:45;22.70;92.70
25811;DHT22;13645;52.460;13.910;2022-07-06T13:00:13;23.00;92.10
25811;DHT22;13645;52.460;13.910;2022-07-06T13:02:43;23.20;90.10
25811;DHT22;13645;52.460;13.910;2022-07-06T13:05:30;23.50;90.00
25811;DHT22;13645;52.460;13.910;2022-07-06T13:07:58;23.60;86.10
25811;DHT22;13645;52.460;13.910;2022-07-06T13:10:25;23.80;87.70
25811;DHT22;13645;52.460;13.910;2022-07-06T13:12:52;23.90;86.80
25811;DHT22;13645;52.460;13.910;2022-07-06T13:15:19;23.70;86.00
25811;DHT22;13645;52.460;13.910;2022-07-06T13:17:45;23.50;85.80
25811;DHT22;13645;52.460;13.910;2022-07-06T13:20:13;22.70;87.00
25811;DHT22;13645;52.460;13.910;2022-07-06T13:22:40;22.80;90.30
25811;DHT22;13645;52.460;13.910;2022-07-06T13:25:07;23.10;90.70
25811;DHT22;13645;52.460;13.910;2022-07-06T13:27:34;23.10;90.30
25811;DHT22;13645;52.460;13.910;2022-07-06T13:30:02;23.20;90.50
25811;DHT22;13645;52.460;13.910;2022-07-06T13:32:29;23.20;89.10
25811;DHT22;13645;52.460;13.910;2022-07-06T13:34:56;23.20;90.10
25811;DHT22;13645;52.460;13.910;2022-07-06T13:37:22;23.00;88.20
25811;DHT22;13645;52.460;13.910;2022-07-06T13:39:50;22.80;87.30
25811;DHT22;13645;52.460;13.910;2022-07-06T13:42:17;23.10;89.90
25811;DHT22;13645;52.460;13.910;2022-07-06T13:44:43;23.10;87.80
25811;DHT22;13645;52.460;13.910;2022-07-06T13:47:10;23.20;89.00
25811;DHT22;13645;52.460;13.910;2022-07-06T13:49:37;23.20;87.90
25811;DHT22;13645;52.460;13.910;2022-07-06T13:52:04;23.00;87.20
25811;DHT22;13645;52.460;13.910;2022-07-06T13:54:32;23.00;89.10
25811;DHT22;13645;52.460;13.910;2022-07-06T13:57:02;22.70;89.10
25811;DHT22;13645;52.460;13.910;2022-07-06T13:59:30;22.60;88.80
25811;DHT22;13645;52.460;13.910;2022-07-06T14:01:57;22.30;88.70
25811;DHT22;13645;52.460;13.910;2022-07-06T14:04:24;22.40;90.30
25811;DHT22;13645;52.460;13.910;2022-07-06T14:06:51;22.20;89.70
25811;DHT22;13645;52.460;13.910;2022-07-06T14:09:18;22.30;91.00
25811;DHT22;13645;52.460;13.910;2022-07-06T14:11:45;22.40;90.90
25811;DHT22;13645;52.460;13.910;2022-07-06T14:14:12;22.00;90.40
25811;DHT22;13645;52.460;13.910;2022-07-06T14:16:39;22.00;90.70
25811;DHT22;13645;52.460;13.910;2022-07-06T14:19:07;21.80;90.70
25811;DHT22;13645;52.460;13.910;2022-07-06T14:21:35;21.60;92.30
25811;DHT22;13645;52.460;13.910;2022-07-06T14:24:02;21.80;92.50
25811;DHT22;13645;52.460;13.910;2022-07-06T14:26:29;21.40;91.90
25811;DHT22;13645;52.460;13.910;2022-07-06T14:28:56;21.30;92.20
25811;DHT22;13645;52.460;13.910;2022-07-06T14:31:22;21.30;92.20
25811;DHT22;13645;52.460;13.910;2022-07-06T14:33:50;21.20;92.70
25811;DHT22;13645;52.460;13.910;2022-07-06T14:36:17;21.30;92.80
25811;DHT22;13645;52.460;13.910;2022-07-06T14:38:44;21.40;93.40
25811;DHT22;13645;52.460;13.910;2022-07-06T14:41:11;21.20;92.60
25811;DHT22;13645;52.460;13.910;2022-07-06T14:43:37;21.40;92.50
25811;DHT22;13645;52.460;13.910;2022-07-06T14:46:04;21.40;91.70
25811;DHT22;13645;52.460;13.910;2022-07-06T14:48:32;21.40;91.70
25811;DHT22;13645;52.460;13.910;2022-07-06T14:50:59;21.50;90.90
25811;DHT22;13645;52.460;13.910;2022-07-06T14:53:26;22.00;91.80
25811;DHT22;13645;52.460;13.910;2022-07-06T14:55:53;22.30;89.30
25811;DHT22;13645;52.460;13.910;2022-07-06T14:58:20;22.20;87.70
25811;DHT22;13645;52.460;13.910;2022-07-06T15:00:50;21.90;89.80
25811;DHT22;13645;52.460;13.910;2022-07-06T15:03:24;21.90;89.40
25811;DHT22;13645;52.460;13.910;2022-07-06T15:05:51;21.70;88.70
25811;DHT22;13645;52.460;13.910;2022-07-06T15:08:18;21.60;88.80
25811;DHT22;13645;52.460;13.910;2022-07-06T15:10:45;21.60;90.30
25811;DHT22;13645;52.460;13.910;2022-07-06T15:13:12;21.60;90.60
25811;DHT22;13645;52.460;13.910;2022-07-06T15:15:39;21.50;90.30
25811;DHT22;13645;52.460;13.910;2022-07-06T15:18:24;21.20;89.30
25811;DHT22;13645;52.460;13.910;2022-07-06T15:20:51;21.30;88.70
25811;DHT22;13645;52.460;13.910;2022-07-06T15:23:18;21.20;90.80
25811;DHT22;13645;52.460;13.910;2022-07-06T15:25:45;21.20;90.20
25811;DHT22;13645;52.460;13.910;2022-07-06T15:28:22;21.10;88.80